Time;durP1;ratioP1;P1;durP2;ratioP2;P2;SDS_P1;SDS_P2;PMS_P1;PMS_P2;Temp;Humidity;BMP_temperature;BMP_pressure;BME280_temperature;BME280_humidity;BME280_pressure;Samples;Min_cycle;Max_cycle;Signal;HPM_P1;HPM_P2
2022/01/26 00:07:48;;;;;;;72.45;29.70;;;;;;;;;;6252183;22;20102;-91
2022/01/26 00:10:14;;;;;;;72.20;27.98;;;;;;;;;;6226875;22;20073;-92
2022/01/26 00:12:40;;;;;;;71.03;31.35;;;;;;;;;;6226980;22;20023;-93
2022/01/26 00:15:06;;;;;;;74.97;31.50;;;;;;;;;;6253448;22;20012;-93
2022/01/26 00:17:32;;;;;;;73.32;29.67;;;;;;;;;;6228561;22;20019;-93
2022/01/26 00:20:12;;;;;;;69.45;29.25;;;;;;;;;;6228654;22;20016;-93
2022/01/26 00:38:41;;;;;;;83.88;27.88;;;;;;;;;;6252381;22;20019;-92
2022/01/26 00:41:11;;;;;;;74.55;27.83;;;;;;;;;;6227941;22;20066;-93
2022/01/26 00:43:38;;;;;;;90.63;33.22;;;;;;;;;;6227224;22;20043;-93
2022/01/26 00:46:06;;;;;;;70.97;26.77;;;;;;;;;;6227057;22;20051;-93
2022/01/26 00:48:33;;;;;;;72.90;30.00;;;;;;;;;;6227505;22;20099;-93
2022/01/26 00:51:03;;;;;;;75.97;29.10;;;;;;;;;;6253407;22;20398;-93
2022/01/26 00:53:35;;;;;;;86.43;31.33;;;;;;;;;;6227174;22;20046;-93
2022/01/26 00:56:01;;;;;;;86.35;31.45;;;;;;;;;;6227451;22;20049;-92
2022/01/26 00:58:28;;;;;;;68.30;27.70;;;;;;;;;;6226637;22;20054;-92
2022/01/26 01:00:55;;;;;;;79.30;30.38;;;;;;;;;;6225785;22;20020;-93
2022/01/26 01:03:22;;;;;;;73.97;30.20;;;;;;;;;;6226676;22;20018;-92
2022/01/26 01:05:57;;;;;;;81.38;30.60;;;;;;;;;;6252080;22;20424;-92
2022/01/26 01:08:25;;;;;;;70.05;29.88;;;;;;;;;;6226761;22;20055;-93
2022/01/26 01:10:52;;;;;;;70.25;28.60;;;;;;;;;;6251753;22;20024;-91
2022/01/26 01:13:22;;;;;;;69.72;27.83;;;;;;;;;;6227729;22;20012;-95
2022/01/26 01:15:49;;;;;;;75.38;28.50;;;;;;;;;;6252243;22;20016;-92
2022/01/26 01:18:23;;;;;;;69.10;28.48;;;;;;;;;;6226715;22;20039;-92
2022/01/26 01:30:59;;;;;;;79.93;28.45;;;;;;;;;;6251794;22;20027;-94
2022/01/26 01:33:32;;;;;;;71.20;26.90;;;;;;;;;;6227193;22;20318;-93
2022/01/26 01:35:59;;;;;;;74.55;29.92;;;;;;;;;;6227151;22;20038;-92
2022/01/26 01:38:28;;;;;;;72.68;28.52;;;;;;;;;;6226503;22;20026;-92
2022/01/26 01:40:55;;;;;;;76.38;27.77;;;;;;;;;;6227071;22;20047;-91
2022/01/26 01:43:22;;;;;;;73.25;28.88;;;;;;;;;;6226575;22;20023;-92
2022/01/26 01:45:50;;;;;;;74.18;28.25;;;;;;;;;;6227262;22;20019;-92
2022/01/26 01:48:20;;;;;;;78.00;28.77;;;;;;;;;;6226612;22;20027;-93
2022/01/26 01:50:47;;;;;;;69.18;28.08;;;;;;;;;;6226695;22;20019;-93
2022/01/26 01:53:15;;;;;;;71.45;29.58;;;;;;;;;;6227260;22;20051;-92
2022/01/26 01:55:47;;;;;;;70.20;30.05;;;;;;;;;;6226334;22;20022;-92
2022/01/26 01:58:14;;;;;;;77.47;29.83;;;;;;;;;;6227412;22;20368;-92
2022/01/26 02:00:40;;;;;;;73.50;28.90;;;;;;;;;;6226822;22;20012;-93
2022/01/26 02:03:06;;;;;;;78.22;30.15;;;;;;;;;;6227090;22;20098;-94
2022/01/26 02:05:32;;;;;;;79.75;29.52;;;;;;;;;;6228256;22;20016;-93
2022/01/26 02:07:59;;;;;;;82.57;30.83;;;;;;;;;;6227473;22;20015;-92
2022/01/26 02:10:28;;;;;;;78.25;30.88;;;;;;;;;;6227046;22;20016;-92
2022/01/26 02:12:59;;;;;;;67.85;29.25;;;;;;;;;;6227084;22;20345;-92
2022/01/26 02:15:34;;;;;;;75.43;29.13;;;;;;;;;;6226448;22;20016;-93
2022/01/26 02:21:19;;;;;;;76.50;31.10;;;;;;;;;;6251662;22;20023;-92
2022/01/26 02:53:58;;;;;;;71.50;30.13;;;;;;;;;;6251069;22;20098;-91
2022/01/26 02:56:36;;;;;;;69.10;30.80;;;;;;;;;;6250850;22;20043;-91
2022/01/26 03:01:55;;;;;;;81.65;29.70;;;;;;;;;;6251022;22;20062;-92
2022/01/26 03:06:56;;;;;;;98.22;34.83;;;;;;;;;;6250818;22;20045;-91
2022/01/26 03:09:29;;;;;;;80.97;31.83;;;;;;;;;;6227790;22;20020;-91
2022/01/26 03:11:56;;;;;;;79.72;31.52;;;;;;;;;;6255064;22;20047;-91
2022/01/26 03:16:58;;;;;;;79.80;31.98;;;;;;;;;;6253465;22;20019;-93
2022/01/26 03:19:38;;;;;;;79.13;32.60;;;;;;;;;;6228011;22;20341;-91
2022/01/26 03:35:58;;;;;;;65.32;26.88;;;;;;;;;;6074642;23;20022;-93
2022/01/26 03:38:29;;;;;;;60.25;27.77;;;;;;;;;;6050750;23;20002;-92
2022/01/26 03:41:12;;;;;;;73.38;29.52;;;;;;;;;;6050814;23;20014;-91
2022/01/26 03:43:39;;;;;;;68.22;28.33;;;;;;;;;;6050683;23;20022;-91
2022/01/26 03:46:05;;;;;;;73.40;31.25;;;;;;;;;;6050359;23;20018;-90
2022/01/26 03:48:31;;;;;;;77.20;30.42;;;;;;;;;;6051050;23;20061;-91
2022/01/26 03:50:57;;;;;;;84.57;29.17;;;;;;;;;;6049422;23;20022;-91
2022/01/26 03:53:23;;;;;;;60.13;29.17;;;;;;;;;;6050290;23;20018;-91
2022/01/26 03:55:49;;;;;;;70.90;26.98;;;;;;;;;;6049555;23;20077;-91
2022/01/26 03:58:15;;;;;;;77.00;29.23;;;;;;;;;;6049670;23;20101;-91
2022/01/26 04:00:41;;;;;;;70.45;31.45;;;;;;;;;;6049059;23;20030;-92
2022/01/26 04:03:07;;;;;;;65.47;29.08;;;;;;;;;;6135985;23;20099;-92
2022/01/26 04:05:33;;;;;;;67.05;29.25;;;;;;;;;;6160962;23;20095;-91
2022/01/26 04:08:06;;;;;;;63.63;27.02;;;;;;;;;;6137039;23;20035;-91
2022/01/26 04:13:04;;;;;;;60.22;27.33;;;;;;;;;;6251799;22;20055;-93
2022/01/26 04:15:34;;;;;;;65.35;29.23;;;;;;;;;;6227192;22;20019;-91
2022/01/26 04:18:02;;;;;;;58.83;27.77;;;;;;;;;;6227121;22;20081;-92
2022/01/26 04:20:32;;;;;;;62.33;25.60;;;;;;;;;;6226475;22;20467;-91
2022/01/26 04:23:11;;;;;;;61.28;27.35;;;;;;;;;;6252510;22;20019;-92
2022/01/26 04:25:39;;;;;;;63.00;25.80;;;;;;;;;;6227219;22;20098;-91
2022/01/26 04:28:10;;;;;;;63.05;24.45;;;;;;;;;;6227307;22;20026;-91
2022/01/26 04:30:36;;;;;;;60.45;26.50;;;;;;;;;;6252485;22;20514;-92
2022/01/26 04:33:04;;;;;;;64.38;27.90;;;;;;;;;;6226517;22;20029;-91
2022/01/26 04:35:31;;;;;;;66.82;28.65;;;;;;;;;;6226638;22;20016;-90
2022/01/26 04:40:36;;;;;;;58.45;27.35;;;;;;;;;;6251856;22;20022;-92
2022/01/26 04:43:07;;;;;;;61.78;26.70;;;;;;;;;;6226765;22;20015;-92
2022/01/26 04:45:33;;;;;;;61.85;26.40;;;;;;;;;;6226477;22;20066;-92
2022/01/26 04:47:59;;;;;;;62.42;25.85;;;;;;;;;;6226481;22;20065;-93
2022/01/26 04:50:25;;;;;;;60.83;24.85;;;;;;;;;;6282531;22;20016;-92
2022/01/26 04:52:51;;;;;;;55.20;23.70;;;;;;;;;;6257464;22;20385;-92
2022/01/26 04:55:17;;;;;;;64.00;27.05;;;;;;;;;;6257367;22;20015;-91
2022/01/26 04:57:43;;;;;;;61.10;24.00;;;;;;;;;;6282926;22;20050;-91
2022/01/26 05:00:09;;;;;;;66.60;24.85;;;;;;;;;;6257784;22;20080;-92
2022/01/26 05:02:36;;;;;;;53.83;23.73;;;;;;;;;;6256802;22;20019;-94
2022/01/26 05:05:02;;;;;;;61.75;25.75;;;;;;;;;;6282331;22;20015;-92
2022/01/26 05:07:28;;;;;;;61.75;24.08;;;;;;;;;;6257167;22;20066;-92
2022/01/26 05:09:54;;;;;;;49.70;23.45;;;;;;;;;;6257446;22;20022;-92
2022/01/26 05:12:20;;;;;;;58.88;23.50;;;;;;;;;;6257262;22;20535;-92
2022/01/26 05:14:48;;;;;;;54.83;23.85;;;;;;;;;;6257610;22;20098;-91
2022/01/26 05:17:15;;;;;;;60.90;24.17;;;;;;;;;;6257197;22;20019;-91
2022/01/26 05:19:41;;;;;;;64.63;24.58;;;;;;;;;;6256931;22;20093;-91
2022/01/26 05:22:07;;;;;;;52.80;24.67;;;;;;;;;;6256269;22;20033;-91
2022/01/26 05:24:34;;;;;;;52.67;23.65;;;;;;;;;;6256650;22;20011;-92
2022/01/26 05:27:00;;;;;;;53.08;22.00;;;;;;;;;;6257915;22;20019;-91
2022/01/26 05:29:26;;;;;;;49.22;22.05;;;;;;;;;;6256791;22;20015;-92
2022/01/26 05:31:52;;;;;;;53.72;22.70;;;;;;;;;;6256704;22;20094;-92
2022/01/26 05:34:18;;;;;;;57.45;23.17;;;;;;;;;;6256913;22;20015;-93
2022/01/26 05:36:44;;;;;;;55.08;23.90;;;;;;;;;;6257026;22;20028;-92
2022/01/26 05:39:10;;;;;;;59.22;22.17;;;;;;;;;;6256587;22;20137;-91
2022/01/26 05:41:38;;;;;;;51.30;22.08;;;;;;;;;;6256562;22;20026;-91
2022/01/26 05:44:04;;;;;;;53.42;22.33;;;;;;;;;;6257078;22;20337;-91
2022/01/26 05:46:40;;;;;;;52.83;23.58;;;;;;;;;;6257524;22;20022;-93
2022/01/26 05:49:06;;;;;;;53.60;22.20;;;;;;;;;;6257791;22;20011;-92
2022/01/26 05:51:33;;;;;;;55.55;22.67;;;;;;;;;;6256529;22;20015;-93
2022/01/26 05:53:59;;;;;;;54.60;22.08;;;;;;;;;;6256894;22;20015;-93
2022/01/26 05:56:25;;;;;;;58.92;24.52;;;;;;;;;;6256633;22;20021;-92
2022/01/26 05:58:51;;;;;;;53.13;23.80;;;;;;;;;;6256732;22;20019;-93
2022/01/26 06:01:19;;;;;;;58.33;24.02;;;;;;;;;;6256672;22;20019;-91
2022/01/26 06:03:45;;;;;;;64.72;26.00;;;;;;;;;;6257278;22;20015;-90
2022/01/26 06:06:11;;;;;;;48.40;22.83;;;;;;;;;;6256854;22;20015;-92
2022/01/26 06:08:38;;;;;;;59.90;23.15;;;;;;;;;;6258100;22;20016;-93
2022/01/26 06:11:04;;;;;;;50.65;21.27;;;;;;;;;;6256912;22;20022;-93
2022/01/26 06:13:30;;;;;;;62.30;23.10;;;;;;;;;;6257684;22;20049;-94
2022/01/26 06:15:56;;;;;;;51.67;23.02;;;;;;;;;;6256648;22;20011;-92
2022/01/26 06:18:23;;;;;;;54.50;23.48;;;;;;;;;;6256523;22;20383;-92
2022/01/26 06:20:49;;;;;;;58.63;22.65;;;;;;;;;;6282411;22;20045;-90
2022/01/26 06:23:15;;;;;;;58.75;22.00;;;;;;;;;;6256331;22;20089;-92
2022/01/26 06:25:41;;;;;;;57.63;24.23;;;;;;;;;;6256093;22;20065;-92
2022/01/26 06:28:12;;;;;;;56.75;22.17;;;;;;;;;;6256398;22;20015;-93
2022/01/26 06:30:39;;;;;;;54.90;23.58;;;;;;;;;;6256013;22;20022;-93
2022/01/26 06:33:05;;;;;;;56.15;22.77;;;;;;;;;;6281723;22;20015;-91
2022/01/26 06:35:31;;;;;;;57.40;24.58;;;;;;;;;;6256348;22;20015;-94
2022/01/26 06:37:57;;;;;;;58.58;24.33;;;;;;;;;;6256175;22;20047;-93
2022/01/26 06:40:24;;;;;;;61.00;26.17;;;;;;;;;;6256429;22;20015;-91
2022/01/26 06:43:03;;;;;;;55.28;25.30;;;;;;;;;;6256150;22;20015;-91
2022/01/26 06:45:33;;;;;;;51.53;22.20;;;;;;;;;;6256782;22;20033;-92
2022/01/26 06:50:45;;;;;;;55.28;24.45;;;;;;;;;;6284046;22;20019;-91
2022/01/26 06:53:13;;;;;;;64.18;27.08;;;;;;;;;;6261377;22;20015;-92
2022/01/26 06:55:39;;;;;;;58.33;24.52;;;;;;;;;;6263226;22;20022;-92
2022/01/26 06:58:06;;;;;;;60.08;24.70;;;;;;;;;;6263733;22;20068;-94
2022/01/26 07:00:32;;;;;;;62.15;25.20;;;;;;;;;;6288487;22;20023;-90
2022/01/26 07:02:58;;;;;;;60.35;25.67;;;;;;;;;;6257741;22;20503;-90
2022/01/26 07:05:24;;;;;;;66.28;24.70;;;;;;;;;;6256106;22;20049;-91
2022/01/26 07:07:50;;;;;;;66.88;26.80;;;;;;;;;;6256436;22;20098;-90
2022/01/26 07:10:16;;;;;;;55.63;26.80;;;;;;;;;;6256151;22;20012;-91
2022/01/26 07:12:42;;;;;;;64.50;27.83;;;;;;;;;;6255798;22;20019;-91
2022/01/26 07:23:37;;;;;;;61.78;27.15;;;;;;;;;;6159671;23;20025;-90
2022/01/26 07:26:03;;;;;;;72.50;28.30;;;;;;;;;;6135068;23;20384;-91
2022/01/26 07:28:36;;;;;;;60.65;28.35;;;;;;;;;;6135875;23;20017;-91
2022/01/26 07:31:07;;;;;;;65.28;29.23;;;;;;;;;;6134575;23;20499;-91
2022/01/26 07:33:41;;;;;;;68.93;28.52;;;;;;;;;;6135298;23;20057;-91
2022/01/26 07:36:07;;;;;;;71.50;29.10;;;;;;;;;;6135655;23;20482;-91
2022/01/26 07:38:39;;;;;;;54.88;26.58;;;;;;;;;;6135916;23;20371;-91
2022/01/26 07:41:09;;;;;;;65.72;29.45;;;;;;;;;;6134432;23;20024;-92
2022/01/26 07:43:37;;;;;;;66.75;28.40;;;;;;;;;;6137125;23;20072;-92
2022/01/26 07:46:06;;;;;;;65.80;28.67;;;;;;;;;;6137688;23;20028;-92
2022/01/26 07:48:35;;;;;;;69.75;29.20;;;;;;;;;;6162389;23;20615;-92
2022/01/26 07:51:04;;;;;;;64.75;30.00;;;;;;;;;;6134814;23;20037;-91
2022/01/26 07:53:33;;;;;;;71.13;29.77;;;;;;;;;;6137594;23;20088;-92
2022/01/26 07:56:04;;;;;;;74.50;31.60;;;;;;;;;;6179141;22;20019;-92
2022/01/26 07:58:33;;;;;;;71.95;31.20;;;;;;;;;;6283918;22;20026;-92
2022/01/26 08:00:59;;;;;;;65.00;28.33;;;;;;;;;;6258998;22;20015;-91
2022/01/26 08:03:33;;;;;;;71.18;29.08;;;;;;;;;;6260078;22;20503;-92
2022/01/26 08:06:03;;;;;;;71.07;29.48;;;;;;;;;;6261282;22;20061;-91
2022/01/26 08:08:38;;;;;;;65.88;29.13;;;;;;;;;;6259167;22;20019;-93
2022/01/26 08:11:09;;;;;;;75.47;29.48;;;;;;;;;;6259207;22;20440;-91
2022/01/26 08:13:36;;;;;;;69.32;29.98;;;;;;;;;;6257946;22;20023;-92
2022/01/26 08:16:02;;;;;;;79.53;30.92;;;;;;;;;;6259616;22;20007;-91
2022/01/26 08:18:33;;;;;;;73.53;31.90;;;;;;;;;;6259432;22;20026;-91
2022/01/26 08:21:06;;;;;;;72.40;31.88;;;;;;;;;;6259902;22;20022;-91
2022/01/26 08:23:43;;;;;;;77.25;31.23;;;;;;;;;;6260062;22;20022;-92
2022/01/26 08:26:38;;;;;;;66.50;31.05;;;;;;;;;;6288273;22;20073;-94
2022/01/26 08:29:21;;;;;;;72.97;31.80;;;;;;;;;;6260884;22;20011;-92
2022/01/26 08:31:50;;;;;;;79.97;32.33;;;;;;;;;;6265066;22;20019;-92
2022/01/26 08:34:24;;;;;;;72.13;30.17;;;;;;;;;;6260864;22;20015;-92
2022/01/26 08:37:03;;;;;;;65.35;30.48;;;;;;;;;;6259258;22;20026;-92
2022/01/26 08:39:56;;;;;;;68.55;29.23;;;;;;;;;;6259880;22;20023;-93
2022/01/26 08:42:30;;;;;;;71.75;28.80;;;;;;;;;;6258012;22;20019;-93
2022/01/26 08:45:00;;;;;;;56.25;25.30;;;;;;;;;;6261365;22;20053;-93
2022/01/26 08:47:31;;;;;;;64.00;29.27;;;;;;;;;;6252436;22;20020;-91
2022/01/26 08:50:05;;;;;;;66.72;29.38;;;;;;;;;;6227886;22;20058;-90
2022/01/26 08:52:31;;;;;;;55.67;27.50;;;;;;;;;;6225258;22;20016;-93
2022/01/26 08:54:57;;;;;;;59.10;28.30;;;;;;;;;;6226671;22;20023;-91
2022/01/26 08:57:23;;;;;;;61.38;28.48;;;;;;;;;;6225996;22;20020;-90
2022/01/26 08:59:49;;;;;;;67.05;28.77;;;;;;;;;;6251102;22;20016;-90
2022/01/26 09:02:15;;;;;;;56.53;26.02;;;;;;;;;;6224881;22;20039;-91
2022/01/26 09:04:41;;;;;;;70.47;30.52;;;;;;;;;;6224991;22;20012;-91
2022/01/26 09:07:08;;;;;;;59.72;27.90;;;;;;;;;;6225093;22;20106;-92
2022/01/26 09:09:43;;;;;;;72.60;30.23;;;;;;;;;;6251072;22;20016;-92
2022/01/26 09:12:10;;;;;;;60.47;26.88;;;;;;;;;;6225073;22;20015;-90
2022/01/26 09:14:36;;;;;;;67.82;28.33;;;;;;;;;;6225103;22;20019;-93
2022/01/26 09:17:03;;;;;;;63.15;27.92;;;;;;;;;;6225870;22;20057;-92
2022/01/26 09:19:31;;;;;;;68.95;28.42;;;;;;;;;;6255963;22;20015;-91
2022/01/26 09:21:58;;;;;;;66.40;27.75;;;;;;;;;;6256276;22;20030;-91
2022/01/26 09:24:32;;;;;;;59.20;26.90;;;;;;;;;;6256394;22;20011;-90
2022/01/26 09:26:58;;;;;;;63.55;25.17;;;;;;;;;;6256205;22;20019;-91
2022/01/26 09:29:25;;;;;;;60.85;25.45;;;;;;;;;;6256130;22;20011;-91
2022/01/26 09:31:51;;;;;;;67.68;28.35;;;;;;;;;;6282288;22;20026;-92
2022/01/26 09:34:18;;;;;;;64.32;28.10;;;;;;;;;;6257267;22;20094;-92
2022/01/26 09:36:45;;;;;;;61.78;27.95;;;;;;;;;;6257306;22;20026;-91
2022/01/26 09:39:14;;;;;;;57.50;28.35;;;;;;;;;;6259986;22;20021;-92
2022/01/26 09:41:49;;;;;;;67.65;30.33;;;;;;;;;;6286576;22;20019;-91
2022/01/26 09:44:16;;;;;;;74.45;29.13;;;;;;;;;;6258178;22;20034;-91
2022/01/26 09:46:43;;;;;;;63.38;26.88;;;;;;;;;;6257752;22;20023;-91
2022/01/26 09:49:09;;;;;;;68.13;27.50;;;;;;;;;;6259301;22;20011;-91
2022/01/26 09:51:42;;;;;;;56.28;22.80;;;;;;;;;;6256863;22;20038;-94
2022/01/26 09:54:11;;;;;;;57.38;25.65;;;;;;;;;;6258050;22;20015;-92
2022/01/26 09:56:37;;;;;;;53.03;25.35;;;;;;;;;;6284707;22;20065;-92
2022/01/26 09:59:04;;;;;;;64.10;25.80;;;;;;;;;;6283947;22;20448;-92
2022/01/26 10:01:40;;;;;;;64.30;26.92;;;;;;;;;;6256780;22;20533;-91
2022/01/26 10:04:06;;;;;;;56.42;22.60;;;;;;;;;;6259074;22;20091;-93
2022/01/26 10:06:34;;;;;;;54.63;23.52;;;;;;;;;;6258089;22;20022;-93
2022/01/26 10:09:37;;;;;;;64.10;25.58;;;;;;;;;;6256716;22;20109;-92
2022/01/26 10:17:36;;;;;;;47.63;21.30;;;;;;;;;;6291932;22;20407;-95
2022/01/26 10:20:03;;;;;;;54.38;23.83;;;;;;;;;;6261162;22;20025;-92
2022/01/26 10:22:48;;;;;;;51.50;23.23;;;;;;;;;;6265392;22;20022;-94
2022/01/26 10:25:37;;;;;;;42.53;20.85;;;;;;;;;;6262710;22;20015;-91
2022/01/26 10:28:04;;;;;;;53.17;21.85;;;;;;;;;;6260621;22;20047;-91
2022/01/26 10:30:30;;;;;;;49.63;21.52;;;;;;;;;;6257101;22;20011;-91
2022/01/26 10:32:56;;;;;;;48.92;22.33;;;;;;;;;;6256212;22;20045;-91
2022/01/26 10:35:24;;;;;;;45.75;19.38;;;;;;;;;;6256214;22;20019;-94
2022/01/26 10:37:56;;;;;;;43.88;19.85;;;;;;;;;;6256528;22;20011;-91
2022/01/26 10:40:25;;;;;;;51.33;21.95;;;;;;;;;;6257033;22;20019;-96
2022/01/26 10:42:54;;;;;;;70.28;21.85;;;;;;;;;;6257486;22;20322;-96
2022/01/26 10:45:32;;;;;;;55.75;22.98;;;;;;;;;;6260421;22;20047;-96
2022/01/26 10:48:10;;;;;;;47.38;21.45;;;;;;;;;;6282937;22;20011;-95
2022/01/26 10:53:16;;;;;;;47.58;21.58;;;;;;;;;;6282919;22;20031;-91
2022/01/26 10:55:42;;;;;;;51.45;21.73;;;;;;;;;;6256449;22;20019;-90
2022/01/26 10:58:18;;;;;;;46.47;21.50;;;;;;;;;;6282156;22;20015;-89
2022/01/26 11:00:54;;;;;;;55.08;22.73;;;;;;;;;;6258372;22;20085;-93
2022/01/26 11:03:23;;;;;;;46.28;21.92;;;;;;;;;;6257061;22;20031;-93
2022/01/26 11:05:49;;;;;;;48.63;21.83;;;;;;;;;;6257671;22;20066;-94
2022/01/26 11:08:16;;;;;;;53.53;23.17;;;;;;;;;;6257841;22;20754;-95
2022/01/26 11:14:12;;;;;;;53.50;23.05;;;;;;;;;;6135564;23;20021;-92
2022/01/26 11:16:56;;;;;;;63.10;23.50;;;;;;;;;;6136662;23;20443;-95
2022/01/26 11:19:23;;;;;;;42.08;20.05;;;;;;;;;;6135401;23;20095;-91
2022/01/26 11:21:49;;;;;;;53.88;22.52;;;;;;;;;;6135450;23;20455;-91
2022/01/26 11:24:23;;;;;;;57.08;22.42;;;;;;;;;;6135600;23;20117;-91
2022/01/26 11:26:50;;;;;;;48.92;22.20;;;;;;;;;;6135400;23;20013;-90
2022/01/26 11:29:22;;;;;;;54.08;21.08;;;;;;;;;;6137558;23;20459;-93
2022/01/26 11:31:48;;;;;;;48.00;22.13;;;;;;;;;;6137444;23;20017;-91
2022/01/26 11:34:17;;;;;;;46.83;22.80;;;;;;;;;;6137496;23;20020;-89
2022/01/26 11:36:44;;;;;;;64.03;26.02;;;;;;;;;;6137909;23;20052;-91
2022/01/26 11:42:27;;;;;;;54.25;23.73;;;;;;;;;;6103341;23;20329;-90
2022/01/26 11:45:09;;;;;;;51.13;23.40;;;;;;;;;;6103500;23;20017;-91
2022/01/26 11:47:36;;;;;;;51.17;23.80;;;;;;;;;;6102734;23;20096;-91
2022/01/26 11:50:14;;;;;;;62.08;26.55;;;;;;;;;;6146651;23;20027;-91
2022/01/26 11:52:40;;;;;;;56.05;25.00;;;;;;;;;;6221541;23;20099;-92
2022/01/26 11:55:27;;;;;;;56.33;24.77;;;;;;;;;;6221754;23;20035;-91
2022/01/26 11:57:55;;;;;;;50.38;22.00;;;;;;;;;;6221785;23;20086;-90
2022/01/26 12:00:43;;;;;;;52.17;22.60;;;;;;;;;;6222411;23;20016;-91
2022/01/26 12:03:22;;;;;;;59.58;25.10;;;;;;;;;;6221974;23;20047;-91
2022/01/26 12:05:50;;;;;;;70.05;27.08;;;;;;;;;;6221531;23;20020;-91
2022/01/26 12:08:26;;;;;;;51.70;24.23;;;;;;;;;;6221853;23;20612;-91
2022/01/26 12:10:52;;;;;;;62.20;26.02;;;;;;;;;;6221238;23;20016;-90
2022/01/26 12:13:21;;;;;;;64.70;25.88;;;;;;;;;;6221407;23;20048;-91
2022/01/26 12:15:54;;;;;;;66.18;25.33;;;;;;;;;;6221353;23;20051;-91
2022/01/26 12:18:29;;;;;;;73.53;27.08;;;;;;;;;;6232861;22;20476;-92
2022/01/26 12:43:45;;;;;;;52.05;23.92;;;;;;;;;;6132444;23;20451;-94
2022/01/26 12:46:19;;;;;;;58.75;23.13;;;;;;;;;;6108158;23;20033;-93
2022/01/26 12:48:52;;;;;;;;;;;4.60;99.90;;;;;;6109080;23;20042;-96
2022/01/26 12:51:18;;;;;;;46.50;21.02;;;;;;;;;;6108303;23;19921;-94
2022/01/26 12:53:45;;;;;;;63.00;25.23;;;;;;;;;;6108286;23;20269;-92
2022/01/26 12:56:12;;;;;;;58.08;24.63;;;;;;;;;;6107931;23;20064;-95
2022/01/26 12:58:39;;;;;;;47.45;21.90;;;;;;;;;;6107995;23;20459;-93
2022/01/26 13:01:07;;;;;;;55.92;23.48;;;;;;;;;;6107927;23;20017;-94
2022/01/26 13:03:34;;;;;;;45.67;21.42;;;;;;;;;;6108766;23;20451;-93
2022/01/26 13:06:07;;;;;;;48.78;21.15;;;;;;;;;;6108075;23;20017;-94
2022/01/26 13:08:59;;;;;;;44.85;21.70;;;;;;;;;;6208769;22;20073;-93
2022/01/26 13:11:27;;;;;;;44.03;19.27;;;;;;;;;;6251544;22;20015;-94
2022/01/26 13:14:45;;;;;;;46.00;22.08;;;;;;;;;;6259107;22;20372;-92
2022/01/26 13:30:50;;;;;;;49.30;20.27;;;;;;;;;;6131623;23;20033;-92
2022/01/26 13:36:52;;;;;;;37.28;18.02;;;;;;;;;;6161253;23;20048;-92
2022/01/26 13:42:21;;;;;;;45.60;19.90;;;;;;;;;;6163242;23;20080;-93
2022/01/26 13:53:48;;;;;;;42.40;18.45;;;;;;;;;;6279190;22;20138;-93
2022/01/26 13:56:33;;;;;;;42.95;19.13;;;;;;;;;;6226778;22;20099;-96
2022/01/26 13:59:14;;;;;;;47.95;17.08;;;;;;;;;;6226516;22;20023;-92
2022/01/26 14:01:45;;;;;;;44.47;19.08;;;;;;;;;;6227098;22;20074;-94
2022/01/26 14:04:14;;;;;;;43.13;20.40;;;;;;;;;;6226870;22;20020;-94
2022/01/26 14:06:40;;;;;;;42.15;19.27;;;;;;;;;;6226820;22;20022;-95
2022/01/26 14:09:06;;;;;;;41.15;19.15;;;;;;;;;;6228044;22;20053;-95
2022/01/26 14:11:32;;;;;;;41.88;19.73;;;;;;;;;;6227877;22;20022;-94
2022/01/26 14:14:00;;;;;;;43.33;19.27;;;;;;;;;;6229113;22;20069;-96
2022/01/26 14:17:14;;;;;;;44.70;20.42;;;5.50;99.90;;;;;;6228136;22;20026;-94
2022/01/26 14:23:32;;;;;;;40.30;18.75;;;;;;;;;;6161944;23;20021;-94
2022/01/26 14:26:32;;;;;;;50.50;19.33;;;;;;;;;;6016915;23;20020;-94
2022/01/26 14:28:59;;;;;;;43.92;19.90;;;;;;;;;;6016451;23;20023;-93
2022/01/26 14:54:12;;;;;;;41.75;18.75;;;;;;;;;;6016626;23;20323;-93
2022/01/26 15:00:37;;;;;;;46.60;18.67;;;;;;;;;;6124467;22;20019;-94
2022/01/26 15:40:50;;;;;;;44.45;18.10;;;;;;;;;;6159502;23;20056;-90
2022/01/26 15:43:44;;;;;;;40.03;20.70;;;;;;;;;;6135597;23;20017;-92
2022/01/26 16:26:29;;;;;;;39.53;17.23;;;;;;;;;;6218399;23;20083;-91
2022/01/26 17:37:48;;;;;;;32.22;14.75;;;;;;;;;;6221202;23;20024;-93
2022/01/26 18:13:26;;;;;;;32.90;16.25;;;;;;;;;;6160582;23;20021;-90
2022/01/26 18:15:58;;;;;;;;;;;6.00;99.90;;;;;;6160037;23;20048;-90
2022/01/26 18:32:16;;;;;;;31.67;15.75;;;;;;;;;;6160169;23;20371;-90
2022/01/26 18:50:56;;;;;;;27.95;14.20;;;;;;;;;;6252384;22;20022;-91
2022/01/26 18:53:22;;;;;;;38.88;16.60;;;;;;;;;;6225395;22;20042;-90
2022/01/26 18:55:48;;;;;;;33.00;16.58;;;;;;;;;;6251011;22;20019;-90
2022/01/26 18:58:14;;;;;;;32.85;13.60;;;;;;;;;;6226727;22;20437;-90
2022/01/26 19:00:44;;;;;;;30.58;15.32;;;;;;;;;;6226435;22;20098;-89
2022/01/26 19:03:10;;;;;;;29.55;15.40;;;;;;;;;;6252312;22;20018;-90
2022/01/26 19:05:36;;;;;;;33.13;14.63;;;;;;;;;;6226192;22;20027;-91
2022/01/26 19:08:02;;;;;;;36.83;15.35;;;;;;;;;;6251936;22;20018;-91
2022/01/26 19:10:28;;;;;;;29.33;12.60;;;;;;;;;;6226213;22;20028;-90
2022/01/26 19:12:55;;;;;;;29.05;15.30;;;;;;;;;;6225801;22;20027;-90
2022/01/26 19:15:26;;;;;;;25.35;14.23;;;;;;;;;;6226830;22;20016;-90
2022/01/26 19:20:37;;;;;;;32.63;15.30;;;;;;;;;;6250873;22;20038;-90
2022/01/26 19:28:12;;;;;;;29.20;16.13;;;;;;;;;;6251324;22;20027;-89
2022/01/26 19:31:49;;;;;;;23.30;13.77;;;;;;;;;;6226423;22;20026;-90
2022/01/26 19:52:56;;;;;;;30.00;13.63;;;;;;;;;;6131422;23;20064;-90
2022/01/26 19:55:23;;;;;;;30.33;12.77;;;;;;;;;;6107891;23;20125;-89
2022/01/26 19:57:50;;;;;;;32.83;14.30;;;;;;;;;;6107864;23;20013;-90
2022/01/26 20:00:16;;;;;;;33.28;16.02;;;;;;;;;;6107723;23;20017;-88
2022/01/26 20:02:42;;;;;;;31.30;15.50;;;;;;;;;;6157011;23;20010;-89
2022/01/26 20:05:15;;;;;;;25.92;13.55;;;;;;;;;;6159992;23;20059;-89
2022/01/26 20:07:44;;;;;;;27.30;13.53;;;;;;;;;;6111172;23;20018;-89
2022/01/26 20:10:44;;;;;;;;;;;;;;;;;;;;;
2022/01/26 20:24:05;;;;;;;26.92;14.07;;;;;;;;;;6021442;23;20059;-92
2022/01/26 20:26:34;;;;;;;28.63;12.93;;;;;;;;;;6022895;23;20067;-89
2022/01/26 20:29:01;;;;;;;26.00;13.27;;;;;;;;;;6021367;23;20020;-92
2022/01/26 20:32:09;;;;;;;25.88;13.93;;;;;;;;;;6021262;23;20060;-93
2022/01/26 20:34:35;;;;;;;27.67;15.70;;;;;;;;;;6019242;23;20094;-90
2022/01/26 20:41:23;;;;;;;;;;;;;;;;;;;;;
2022/01/26 21:07:59;;;;;;;;;;;;;;;;;;;;;
2022/01/26 22:20:20;;;;;;;26.27;10.48;;;;;;;;;;6187472;22;20048;-93
2022/01/26 22:22:47;;;;;;;21.08;10.45;;;;;;;;;;6138464;23;20025;-93
2022/01/26 22:25:15;;;;;;;27.98;10.90;;;;;;;;;;6138357;23;20024;-91
2022/01/26 22:27:44;;;;;;;27.33;11.90;;;;;;;;;;6139001;23;20017;-93
2022/01/26 22:30:12;;;;;;;23.05;9.80;;;;;;;;;;6138170;23;20047;-91
2022/01/26 22:32:38;;;;;;;24.13;9.52;;;;;;;;;;6162313;23;20020;-93
2022/01/26 22:35:05;;;;;;;19.23;7.25;;;;;;;;;;6161594;23;20351;-88
2022/01/26 22:37:31;;;;;;;18.63;8.73;;;;;;;;;;6163528;23;20064;-90
2022/01/26 22:40:00;;;;;;;16.00;8.75;;;;;;;;;;6188771;23;20020;-90
2022/01/26 22:42:26;;;;;;;22.00;9.77;;;;;;;;;;6187624;23;20028;-91
2022/01/26 22:44:53;;;;;;;18.80;6.72;;;;;;;;;;6163730;23;20469;-92
2022/01/26 22:47:19;;;;;;;18.73;8.45;;;;;;;;;;6162891;23;20025;-92
2022/01/26 22:49:46;;;;;;;14.15;8.65;;;;;;;;;;6161455;23;20017;-90
2022/01/26 22:52:12;;;;;;;18.60;8.07;;;;;;;;;;6161669;23;20461;-89
2022/01/26 22:54:38;;;;;;;22.95;9.98;;;;;;;;;;6161782;23;20013;-91
2022/01/26 22:57:04;;;;;;;20.27;9.57;;;;;;;;;;6163134;23;20036;-89
2022/01/26 22:59:30;;;;;;;17.80;8.70;;;;;;;;;;6161423;23;20056;-89
2022/01/26 23:04:51;;;;;;;16.88;8.18;;;;;;;;;;6161947;23;20347;-91
2022/01/26 23:07:17;;;;;;;16.73;8.23;;;;;;;;;;6163693;23;20167;-89
2022/01/26 23:09:43;;;;;;;21.23;10.18;;;;;;;;;;6163205;23;20435;-89
2022/01/26 23:12:09;;;;;;;20.95;10.38;;;;;;;;;;6162907;23;20048;-90
2022/01/26 23:14:35;;;;;;;18.85;9.30;;;;;;;;;;6162419;23;20017;-90
2022/01/26 23:17:02;;;;;;;22.00;10.43;;;;;;;;;;6162072;23;20021;-89
2022/01/26 23:19:28;;;;;;;25.55;10.40;;;;;;;;;;6165796;23;20017;-90
2022/01/26 23:21:54;;;;;;;21.63;10.85;;;;;;;;;;6160974;23;20032;-90
2022/01/26 23:24:28;;;;;;;22.92;9.82;;;;;;;;;;6160984;23;20017;-89
2022/01/26 23:27:05;;;;;;;26.25;10.90;;;;;;;;;;6185888;23;20021;-89
2022/01/26 23:29:44;;;;;;;17.05;9.40;;;;;;;;;;6185770;23;20017;-90
2022/01/26 23:32:33;;;;;;;27.92;9.88;;;;;;;;;;6186188;23;20055;-90
2022/01/26 23:35:07;;;;;;;21.02;10.63;;;;;;;;;;6187044;23;20103;-90
